sensor_id;sensor_type;location;lat;lon;timestamp;temperature;humidity
13251;DHT22;6692;50.710;7.180;2022-09-01T00:00:55;19.40;99.90
13251;DHT22;6692;50.710;7.180;2022-09-01T00:02:56;19.30;99.90
13251;DHT22;6692;50.710;7.180;2022-09-01T00:04:58;19.30;99.90
13251;DHT22;6692;50.710;7.180;2022-09-01T00:06:59;19.30;99.90
13251;DHT22;6692;50.710;7.180;2022-09-01T00:09:02;19.30;99.90
13251;DHT22;6692;50.710;7.180;2022-09-01T00:11:01;19.20;99.90
13251;DHT22;6692;50.710;7.180;2022-09-01T00:13:02;19.20;99.90
13251;DHT22;6692;50.710;7.180;2022-09-01T00:15:04;19.20;99.90
13251;DHT22;6692;50.710;7.180;2022-09-01T00:17:05;19.20;99.90
13251;DHT22;6692;50.710;7.180;2022-09-01T00:19:04;19.10;99.90
13251;DHT22;6692;50.710;7.180;2022-09-01T00:21:05;19.10;99.90
13251;DHT22;6692;50.710;7.180;2022-09-01T00:23:06;19.00;99.90
13251;DHT22;6692;50.710;7.180;2022-09-01T00:25:08;18.90;99.90
13251;DHT22;6692;50.710;7.180;2022-09-01T00:27:08;18.90;99.90
13251;DHT22;6692;50.710;7.180;2022-09-01T00:29:09;18.80;99.90
13251;DHT22;6692;50.710;7.180;2022-09-01T00:31:10;18.80;99.90
13251;DHT22;6692;50.710;7.180;2022-09-01T00:33:10;18.70;99.90
13251;DHT22;6692;50.710;7.180;2022-09-01T00:35:13;18.70;99.90
13251;DHT22;6692;50.710;7.180;2022-09-01T00:37:12;18.70;99.90
13251;DHT22;6692;50.710;7.180;2022-09-01T00:39:13;18.70;99.90
13251;DHT22;6692;50.710;7.180;2022-09-01T00:41:14;18.70;99.90
13251;DHT22;6692;50.710;7.180;2022-09-01T00:43:21;18.70;99.90
13251;DHT22;6692;50.710;7.180;2022-09-01T00:45:21;18.70;99.90
13251;DHT22;6692;50.710;7.180;2022-09-01T00:47:21;18.60;99.90
13251;DHT22;6692;50.710;7.180;2022-09-01T00:49:26;18.50;99.90
13251;DHT22;6692;50.710;7.180;2022-09-01T00:51:24;18.40;99.90
13251;DHT22;6692;50.710;7.180;2022-09-01T00:53:24;18.40;99.90
13251;DHT22;6692;50.710;7.180;2022-09-01T00:55:28;18.40;99.90
13251;DHT22;6692;50.710;7.180;2022-09-01T00:57:26;18.40;99.90
13251;DHT22;6692;50.710;7.180;2022-09-01T00:59:28;18.60;99.90
13251;DHT22;6692;50.710;7.180;2022-09-01T01:01:28;18.60;99.90
13251;DHT22;6692;50.710;7.180;2022-09-01T01:03:29;18.70;99.90
13251;DHT22;6692;50.710;7.180;2022-09-01T01:05:31;18.70;99.90
13251;DHT22;6692;50.710;7.180;2022-09-01T01:07:31;18.80;99.90
13251;DHT22;6692;50.710;7.180;2022-09-01T01:09:33;18.90;99.90
13251;DHT22;6692;50.710;7.180;2022-09-01T01:11:34;18.90;99.90
13251;DHT22;6692;50.710;7.180;2022-09-01T01:15:47;18.90;99.90
13251;DHT22;6692;50.710;7.180;2022-09-01T01:17:47;18.90;99.90
13251;DHT22;6692;50.710;7.180;2022-09-01T01:19:50;18.90;99.90
13251;DHT22;6692;50.710;7.180;2022-09-01T01:21:55;19.00;99.90
13251;DHT22;6692;50.710;7.180;2022-09-01T01:24:05;18.90;99.90
13251;DHT22;6692;50.710;7.180;2022-09-01T01:26:04;19.00;99.90
13251;DHT22;6692;50.710;7.180;2022-09-01T01:28:06;19.00;99.90
13251;DHT22;6692;50.710;7.180;2022-09-01T01:30:06;19.00;99.90
13251;DHT22;6692;50.710;7.180;2022-09-01T01:32:08;19.10;99.90
13251;DHT22;6692;50.710;7.180;2022-09-01T01:34:08;19.10;99.90
13251;DHT22;6692;50.710;7.180;2022-09-01T01:36:10;19.10;99.90
13251;DHT22;6692;50.710;7.180;2022-09-01T01:38:10;19.10;99.90
13251;DHT22;6692;50.710;7.180;2022-09-01T01:40:12;19.20;99.90
13251;DHT22;6692;50.710;7.180;2022-09-01T01:42:13;19.10;99.90
13251;DHT22;6692;50.710;7.180;2022-09-01T01:44:17;19.10;99.90
13251;DHT22;6692;50.710;7.180;2022-09-01T01:46:16;19.10;99.90
13251;DHT22;6692;50.710;7.180;2022-09-01T01:48:19;19.10;99.90
13251;DHT22;6692;50.710;7.180;2022-09-01T01:50:20;19.10;99.90
13251;DHT22;6692;50.710;7.180;2022-09-01T01:52:19;19.00;99.90
13251;DHT22;6692;50.710;7.180;2022-09-01T01:54:21;19.00;99.90
13251;DHT22;6692;50.710;7.180;2022-09-01T01:56:21;19.00;99.90
13251;DHT22;6692;50.710;7.180;2022-09-01T01:58:22;18.90;99.90
13251;DHT22;6692;50.710;7.180;2022-09-01T02:00:25;18.80;99.90
13251;DHT22;6692;50.710;7.180;2022-09-01T02:02:24;18.80;99.90
13251;DHT22;6692;50.710;7.180;2022-09-01T02:04:24;18.70;99.90
13251;DHT22;6692;50.710;7.180;2022-09-01T02:06:25;18.60;99.90
13251;DHT22;6692;50.710;7.180;2022-09-01T02:08:26;18.60;99.90
13251;DHT22;6692;50.710;7.180;2022-09-01T02:10:28;18.60;99.90
13251;DHT22;6692;50.710;7.180;2022-09-01T02:12:27;18.60;99.90
13251;DHT22;6692;50.710;7.180;2022-09-01T02:14:28;18.50;99.90
13251;DHT22;6692;50.710;7.180;2022-09-01T02:16:30;18.40;99.90
13251;DHT22;6692;50.710;7.180;2022-09-01T02:18:32;18.30;99.90
13251;DHT22;6692;50.710;7.180;2022-09-01T02:20:32;18.30;99.90
13251;DHT22;6692;50.710;7.180;2022-09-01T02:22:33;18.30;99.90
13251;DHT22;6692;50.710;7.180;2022-09-01T02:24:35;18.30;99.90
13251;DHT22;6692;50.710;7.180;2022-09-01T02:26:37;18.20;99.90
13251;DHT22;6692;50.710;7.180;2022-09-01T02:28:37;18.30;99.90
13251;DHT22;6692;50.710;7.180;2022-09-01T02:30:37;18.30;99.90
13251;DHT22;6692;50.710;7.180;2022-09-01T02:32:37;18.20;99.90
13251;DHT22;6692;50.710;7.180;2022-09-01T02:34:38;18.20;99.90
13251;DHT22;6692;50.710;7.180;2022-09-01T02:36:43;18.30;99.90
13251;DHT22;6692;50.710;7.180;2022-09-01T02:38:44;18.20;99.90
13251;DHT22;6692;50.710;7.180;2022-09-01T02:40:46;18.10;99.90
13251;DHT22;6692;50.710;7.180;2022-09-01T02:42:47;18.00;99.90
13251;DHT22;6692;50.710;7.180;2022-09-01T02:44:48;18.00;99.90
13251;DHT22;6692;50.710;7.180;2022-09-01T02:46:49;18.00;99.90
13251;DHT22;6692;50.710;7.180;2022-09-01T02:48:49;18.00;99.90
13251;DHT22;6692;50.710;7.180;2022-09-01T02:50:50;17.90;99.90
13251;DHT22;6692;50.710;7.180;2022-09-01T02:52:51;18.00;99.90
13251;DHT22;6692;50.710;7.180;2022-09-01T02:54:52;17.90;99.90
13251;DHT22;6692;50.710;7.180;2022-09-01T02:56:53;17.80;99.90
13251;DHT22;6692;50.710;7.180;2022-09-01T02:58:54;17.90;99.90
13251;DHT22;6692;50.710;7.180;2022-09-01T03:00:56;17.90;99.90
13251;DHT22;6692;50.710;7.180;2022-09-01T03:02:56;17.90;99.90
13251;DHT22;6692;50.710;7.180;2022-09-01T03:04:57;17.90;99.90
13251;DHT22;6692;50.710;7.180;2022-09-01T03:06:58;17.90;99.90
13251;DHT22;6692;50.710;7.180;2022-09-01T03:08:59;17.90;99.90
13251;DHT22;6692;50.710;7.180;2022-09-01T03:10:59;17.90;99.90
13251;DHT22;6692;50.710;7.180;2022-09-01T03:13:01;17.80;99.90
13251;DHT22;6692;50.710;7.180;2022-09-01T03:15:00;17.80;99.90
13251;DHT22;6692;50.710;7.180;2022-09-01T03:17:01;17.80;99.90
13251;DHT22;6692;50.710;7.180;2022-09-01T03:19:02;17.80;99.90
13251;DHT22;6692;50.710;7.180;2022-09-01T03:21:03;17.80;99.90
13251;DHT22;6692;50.710;7.180;2022-09-01T03:23:05;17.70;99.90
13251;DHT22;6692;50.710;7.180;2022-09-01T03:25:04;17.70;99.90
13251;DHT22;6692;50.710;7.180;2022-09-01T03:27:06;17.60;99.90
13251;DHT22;6692;50.710;7.180;2022-09-01T03:29:07;17.60;99.90
13251;DHT22;6692;50.710;7.180;2022-09-01T03:31:08;17.60;99.90
13251;DHT22;6692;50.710;7.180;2022-09-01T03:33:09;17.60;99.90
13251;DHT22;6692;50.710;7.180;2022-09-01T03:35:10;17.50;99.90
13251;DHT22;6692;50.710;7.180;2022-09-01T03:37:11;17.50;99.90
13251;DHT22;6692;50.710;7.180;2022-09-01T03:39:12;17.40;99.90
13251;DHT22;6692;50.710;7.180;2022-09-01T03:41:14;17.40;99.90
13251;DHT22;6692;50.710;7.180;2022-09-01T03:43:13;17.40;99.90
13251;DHT22;6692;50.710;7.180;2022-09-01T03:45:14;17.40;99.90
13251;DHT22;6692;50.710;7.180;2022-09-01T03:47:15;17.30;99.90
13251;DHT22;6692;50.710;7.180;2022-09-01T03:49:16;17.40;99.90
13251;DHT22;6692;50.710;7.180;2022-09-01T03:51:17;17.30;99.90
13251;DHT22;6692;50.710;7.180;2022-09-01T03:53:18;17.30;99.90
13251;DHT22;6692;50.710;7.180;2022-09-01T03:55:23;17.30;99.90
13251;DHT22;6692;50.710;7.180;2022-09-01T03:57:19;17.30;99.90
13251;DHT22;6692;50.710;7.180;2022-09-01T03:59:20;17.30;99.90
13251;DHT22;6692;50.710;7.180;2022-09-01T04:01:21;17.20;99.90
13251;DHT22;6692;50.710;7.180;2022-09-01T04:03:23;17.20;99.90
13251;DHT22;6692;50.710;7.180;2022-09-01T04:05:24;17.20;99.90
13251;DHT22;6692;50.710;7.180;2022-09-01T04:07:24;17.10;99.90
13251;DHT22;6692;50.710;7.180;2022-09-01T04:09:26;17.10;99.90
13251;DHT22;6692;50.710;7.180;2022-09-01T04:11:26;17.10;99.90
13251;DHT22;6692;50.710;7.180;2022-09-01T04:13:29;17.10;99.90
13251;DHT22;6692;50.710;7.180;2022-09-01T04:15:29;17.00;99.90
13251;DHT22;6692;50.710;7.180;2022-09-01T04:17:30;17.00;99.90
13251;DHT22;6692;50.710;7.180;2022-09-01T04:19:37;16.90;99.90
13251;DHT22;6692;50.710;7.180;2022-09-01T04:21:38;16.90;99.90
13251;DHT22;6692;50.710;7.180;2022-09-01T04:23:39;16.80;99.90
13251;DHT22;6692;50.710;7.180;2022-09-01T04:25:40;16.90;99.90
13251;DHT22;6692;50.710;7.180;2022-09-01T04:27:40;16.80;99.90
13251;DHT22;6692;50.710;7.180;2022-09-01T04:29:41;16.80;99.90
13251;DHT22;6692;50.710;7.180;2022-09-01T04:31:42;16.90;99.90
13251;DHT22;6692;50.710;7.180;2022-09-01T04:33:44;16.80;99.90
13251;DHT22;6692;50.710;7.180;2022-09-01T04:35:44;16.80;99.90
13251;DHT22;6692;50.710;7.180;2022-09-01T04:37:44;16.80;99.90
13251;DHT22;6692;50.710;7.180;2022-09-01T04:39:48;16.70;99.90
13251;DHT22;6692;50.710;7.180;2022-09-01T04:41:48;16.70;99.90
13251;DHT22;6692;50.710;7.180;2022-09-01T04:43:48;16.80;99.90
13251;DHT22;6692;50.710;7.180;2022-09-01T04:45:49;16.80;99.90
13251;DHT22;6692;50.710;7.180;2022-09-01T04:47:50;16.80;99.90
13251;DHT22;6692;50.710;7.180;2022-09-01T04:49:50;16.70;99.90
13251;DHT22;6692;50.710;7.180;2022-09-01T04:51:51;16.70;99.90
13251;DHT22;6692;50.710;7.180;2022-09-01T04:53:53;16.80;99.90
13251;DHT22;6692;50.710;7.180;2022-09-01T04:55:53;16.80;99.90
13251;DHT22;6692;50.710;7.180;2022-09-01T04:57:55;16.70;99.90
13251;DHT22;6692;50.710;7.180;2022-09-01T04:59:55;16.80;99.90
13251;DHT22;6692;50.710;7.180;2022-09-01T05:01:57;16.80;99.90
13251;DHT22;6692;50.710;7.180;2022-09-01T05:03:58;16.80;99.90
13251;DHT22;6692;50.710;7.180;2022-09-01T05:05:59;16.70;99.90
13251;DHT22;6692;50.710;7.180;2022-09-01T05:08:00;16.70;99.90
13251;DHT22;6692;50.710;7.180;2022-09-01T05:10:01;16.70;99.90
13251;DHT22;6692;50.710;7.180;2022-09-01T05:12:03;16.70;99.90
13251;DHT22;6692;50.710;7.180;2022-09-01T05:14:04;16.60;99.90
13251;DHT22;6692;50.710;7.180;2022-09-01T05:16:05;16.60;99.90
13251;DHT22;6692;50.710;7.180;2022-09-01T05:18:06;16.40;99.90
13251;DHT22;6692;50.710;7.180;2022-09-01T05:20:08;16.40;99.90
13251;DHT22;6692;50.710;7.180;2022-09-01T05:22:08;16.50;99.90
13251;DHT22;6692;50.710;7.180;2022-09-01T05:24:09;16.40;99.90
13251;DHT22;6692;50.710;7.180;2022-09-01T05:26:11;16.60;99.90
13251;DHT22;6692;50.710;7.180;2022-09-01T05:28:11;16.60;99.90
13251;DHT22;6692;50.710;7.180;2022-09-01T05:30:12;16.60;99.90
13251;DHT22;6692;50.710;7.180;2022-09-01T05:32:13;16.70;99.90
13251;DHT22;6692;50.710;7.180;2022-09-01T05:34:14;16.70;99.90
13251;DHT22;6692;50.710;7.180;2022-09-01T05:36:15;16.70;99.90
13251;DHT22;6692;50.710;7.180;2022-09-01T05:38:15;16.70;99.90
13251;DHT22;6692;50.710;7.180;2022-09-01T05:40:16;16.60;99.90
13251;DHT22;6692;50.710;7.180;2022-09-01T05:42:17;16.60;99.90
13251;DHT22;6692;50.710;7.180;2022-09-01T05:44:18;16.50;99.90
13251;DHT22;6692;50.710;7.180;2022-09-01T05:46:19;16.60;99.90
13251;DHT22;6692;50.710;7.180;2022-09-01T05:48:19;16.60;99.90
13251;DHT22;6692;50.710;7.180;2022-09-01T05:50:19;16.60;99.90
13251;DHT22;6692;50.710;7.180;2022-09-01T05:52:20;16.60;99.90
13251;DHT22;6692;50.710;7.180;2022-09-01T05:54:21;16.60;99.90
13251;DHT22;6692;50.710;7.180;2022-09-01T05:56:22;16.60;99.90
13251;DHT22;6692;50.710;7.180;2022-09-01T05:58:24;16.70;99.90
13251;DHT22;6692;50.710;7.180;2022-09-01T06:00:24;16.70;99.90
13251;DHT22;6692;50.710;7.180;2022-09-01T06:02:26;16.80;99.90
13251;DHT22;6692;50.710;7.180;2022-09-01T06:04:27;16.70;99.90
13251;DHT22;6692;50.710;7.180;2022-09-01T06:06:29;16.70;99.90
13251;DHT22;6692;50.710;7.180;2022-09-01T06:08:30;16.70;99.90
13251;DHT22;6692;50.710;7.180;2022-09-01T06:10:31;16.70;99.90
13251;DHT22;6692;50.710;7.180;2022-09-01T06:12:31;16.70;99.90
13251;DHT22;6692;50.710;7.180;2022-09-01T06:14:32;16.70;99.90
13251;DHT22;6692;50.710;7.180;2022-09-01T06:16:32;16.80;99.90
13251;DHT22;6692;50.710;7.180;2022-09-01T06:18:35;16.90;99.90
13251;DHT22;6692;50.710;7.180;2022-09-01T06:20:38;16.90;99.90
13251;DHT22;6692;50.710;7.180;2022-09-01T06:22:38;17.00;99.90
13251;DHT22;6692;50.710;7.180;2022-09-01T06:24:38;17.00;99.90
13251;DHT22;6692;50.710;7.180;2022-09-01T06:26:39;17.00;99.90
13251;DHT22;6692;50.710;7.180;2022-09-01T06:28:40;17.00;99.90
13251;DHT22;6692;50.710;7.180;2022-09-01T06:30:40;17.10;99.90
13251;DHT22;6692;50.710;7.180;2022-09-01T06:32:42;17.10;99.90
13251;DHT22;6692;50.710;7.180;2022-09-01T06:34:43;17.10;99.90
13251;DHT22;6692;50.710;7.180;2022-09-01T06:36:45;17.20;99.90
13251;DHT22;6692;50.710;7.180;2022-09-01T06:38:44;17.20;99.90
13251;DHT22;6692;50.710;7.180;2022-09-01T06:40:45;17.20;99.90
13251;DHT22;6692;50.710;7.180;2022-09-01T06:42:46;17.20;99.90
13251;DHT22;6692;50.710;7.180;2022-09-01T06:44:46;17.10;99.90
13251;DHT22;6692;50.710;7.180;2022-09-01T06:46:49;17.20;99.90
13251;DHT22;6692;50.710;7.180;2022-09-01T06:48:49;17.20;99.90
13251;DHT22;6692;50.710;7.180;2022-09-01T06:50:49;17.20;99.90
13251;DHT22;6692;50.710;7.180;2022-09-01T06:52:50;17.30;99.90
13251;DHT22;6692;50.710;7.180;2022-09-01T06:54:51;17.30;99.90
13251;DHT22;6692;50.710;7.180;2022-09-01T06:56:52;17.20;99.90
13251;DHT22;6692;50.710;7.180;2022-09-01T06:58:53;17.30;99.90
13251;DHT22;6692;50.710;7.180;2022-09-01T07:00:53;17.30;99.90
13251;DHT22;6692;50.710;7.180;2022-09-01T07:02:54;17.30;99.90
13251;DHT22;6692;50.710;7.180;2022-09-01T07:04:54;17.30;99.90
13251;DHT22;6692;50.710;7.180;2022-09-01T07:06:55;17.40;99.90
13251;DHT22;6692;50.710;7.180;2022-09-01T07:08:57;17.50;99.90
13251;DHT22;6692;50.710;7.180;2022-09-01T07:10:57;17.40;99.90
13251;DHT22;6692;50.710;7.180;2022-09-01T07:12:58;17.50;99.90
13251;DHT22;6692;50.710;7.180;2022-09-01T07:14:58;17.50;99.90
13251;DHT22;6692;50.710;7.180;2022-09-01T07:16:59;17.60;99.90
13251;DHT22;6692;50.710;7.180;2022-09-01T07:19:00;17.60;99.90
13251;DHT22;6692;50.710;7.180;2022-09-01T07:21:04;17.80;99.90
13251;DHT22;6692;50.710;7.180;2022-09-01T07:23:02;17.70;99.90
13251;DHT22;6692;50.710;7.180;2022-09-01T07:25:04;17.80;99.90
13251;DHT22;6692;50.710;7.180;2022-09-01T07:27:05;17.90;99.90
13251;DHT22;6692;50.710;7.180;2022-09-01T07:29:07;17.90;99.90
13251;DHT22;6692;50.710;7.180;2022-09-01T07:31:07;17.90;99.90
13251;DHT22;6692;50.710;7.180;2022-09-01T07:33:08;17.90;99.90
13251;DHT22;6692;50.710;7.180;2022-09-01T07:35:10;18.00;99.90
13251;DHT22;6692;50.710;7.180;2022-09-01T07:37:10;18.00;99.90
13251;DHT22;6692;50.710;7.180;2022-09-01T07:39:12;18.10;99.90
13251;DHT22;6692;50.710;7.180;2022-09-01T07:41:13;18.10;99.90
13251;DHT22;6692;50.710;7.180;2022-09-01T07:43:16;18.10;99.90
13251;DHT22;6692;50.710;7.180;2022-09-01T07:45:16;18.20;99.90
13251;DHT22;6692;50.710;7.180;2022-09-01T07:47:17;18.20;99.90
13251;DHT22;6692;50.710;7.180;2022-09-01T07:49:17;18.20;99.90
13251;DHT22;6692;50.710;7.180;2022-09-01T07:51:19;18.30;99.90
13251;DHT22;6692;50.710;7.180;2022-09-01T07:53:20;18.30;99.90
13251;DHT22;6692;50.710;7.180;2022-09-01T07:55:20;18.40;99.90
13251;DHT22;6692;50.710;7.180;2022-09-01T07:57:21;18.40;99.90
13251;DHT22;6692;50.710;7.180;2022-09-01T07:59:23;18.40;99.90
13251;DHT22;6692;50.710;7.180;2022-09-01T08:01:25;18.50;99.90
13251;DHT22;6692;50.710;7.180;2022-09-01T08:03:25;18.50;99.90
13251;DHT22;6692;50.710;7.180;2022-09-01T08:05:26;18.50;99.90
13251;DHT22;6692;50.710;7.180;2022-09-01T08:07:27;18.50;99.90
13251;DHT22;6692;50.710;7.180;2022-09-01T08:09:27;18.60;99.90
13251;DHT22;6692;50.710;7.180;2022-09-01T08:11:28;18.60;99.90
13251;DHT22;6692;50.710;7.180;2022-09-01T08:13:29;18.70;99.90
13251;DHT22;6692;50.710;7.180;2022-09-01T08:15:30;18.70;99.90
13251;DHT22;6692;50.710;7.180;2022-09-01T08:17:31;18.80;99.90
13251;DHT22;6692;50.710;7.180;2022-09-01T08:19:33;18.80;99.90
13251;DHT22;6692;50.710;7.180;2022-09-01T08:21:33;18.80;99.90
13251;DHT22;6692;50.710;7.180;2022-09-01T08:23:34;18.90;99.90
13251;DHT22;6692;50.710;7.180;2022-09-01T08:25:35;18.90;99.90
13251;DHT22;6692;50.710;7.180;2022-09-01T08:27:36;19.00;99.90
13251;DHT22;6692;50.710;7.180;2022-09-01T08:29:36;18.90;99.90
13251;DHT22;6692;50.710;7.180;2022-09-01T08:31:37;19.00;99.90
13251;DHT22;6692;50.710;7.180;2022-09-01T08:33:39;19.10;99.90
13251;DHT22;6692;50.710;7.180;2022-09-01T08:35:40;19.10;99.90
13251;DHT22;6692;50.710;7.180;2022-09-01T08:37:40;19.20;99.90
13251;DHT22;6692;50.710;7.180;2022-09-01T08:39:41;19.20;99.90
13251;DHT22;6692;50.710;7.180;2022-09-01T08:41:43;19.30;99.90
13251;DHT22;6692;50.710;7.180;2022-09-01T08:43:59;19.30;99.90
13251;DHT22;6692;50.710;7.180;2022-09-01T08:45:57;19.30;99.90
13251;DHT22;6692;50.710;7.180;2022-09-01T08:47:59;19.30;99.90
13251;DHT22;6692;50.710;7.180;2022-09-01T08:49:59;19.40;99.90
13251;DHT22;6692;50.710;7.180;2022-09-01T08:54:31;19.50;99.90
13251;DHT22;6692;50.710;7.180;2022-09-01T08:56:30;19.40;99.90
13251;DHT22;6692;50.710;7.180;2022-09-01T08:58:31;19.50;99.90
13251;DHT22;6692;50.710;7.180;2022-09-01T09:00:32;19.60;99.90
13251;DHT22;6692;50.710;7.180;2022-09-01T09:02:42;19.60;99.90
13251;DHT22;6692;50.710;7.180;2022-09-01T09:05:04;19.60;99.90
13251;DHT22;6692;50.710;7.180;2022-09-01T09:07:03;19.60;99.90
13251;DHT22;6692;50.710;7.180;2022-09-01T09:09:04;19.70;99.90
13251;DHT22;6692;50.710;7.180;2022-09-01T09:11:05;19.70;99.90
13251;DHT22;6692;50.710;7.180;2022-09-01T09:13:09;19.70;99.90
13251;DHT22;6692;50.710;7.180;2022-09-01T09:17:14;19.70;99.90
13251;DHT22;6692;50.710;7.180;2022-09-01T09:19:21;19.70;99.90
13251;DHT22;6692;50.710;7.180;2022-09-01T09:23:38;19.80;99.90
13251;DHT22;6692;50.710;7.180;2022-09-01T09:25:37;19.90;99.90
13251;DHT22;6692;50.710;7.180;2022-09-01T09:27:39;19.90;99.90
13251;DHT22;6692;50.710;7.180;2022-09-01T09:29:39;20.00;99.90
13251;DHT22;6692;50.710;7.180;2022-09-01T09:31:40;20.00;99.90
13251;DHT22;6692;50.710;7.180;2022-09-01T09:33:43;20.00;99.90
13251;DHT22;6692;50.710;7.180;2022-09-01T09:35:44;20.10;99.90
13251;DHT22;6692;50.710;7.180;2022-09-01T09:37:45;20.20;99.90
13251;DHT22;6692;50.710;7.180;2022-09-01T09:42:01;20.20;99.90
13251;DHT22;6692;50.710;7.180;2022-09-01T09:44:14;20.30;99.90
13251;DHT22;6692;50.710;7.180;2022-09-01T09:48:26;20.40;99.90
13251;DHT22;6692;50.710;7.180;2022-09-01T09:50:26;20.30;99.90
13251;DHT22;6692;50.710;7.180;2022-09-01T09:52:25;20.50;99.90
13251;DHT22;6692;50.710;7.180;2022-09-01T09:54:28;20.50;99.90
13251;DHT22;6692;50.710;7.180;2022-09-01T09:56:28;20.50;99.90
13251;DHT22;6692;50.710;7.180;2022-09-01T09:58:34;20.50;99.90
13251;DHT22;6692;50.710;7.180;2022-09-01T10:00:34;20.50;99.90
13251;DHT22;6692;50.710;7.180;2022-09-01T10:02:37;20.50;99.90
13251;DHT22;6692;50.710;7.180;2022-09-01T10:04:37;20.60;99.90
13251;DHT22;6692;50.710;7.180;2022-09-01T10:06:39;20.70;99.90
13251;DHT22;6692;50.710;7.180;2022-09-01T10:08:42;20.80;99.90
13251;DHT22;6692;50.710;7.180;2022-09-01T10:10:43;20.90;99.90
13251;DHT22;6692;50.710;7.180;2022-09-01T10:12:43;20.90;99.90
13251;DHT22;6692;50.710;7.180;2022-09-01T10:14:47;21.00;99.90
13251;DHT22;6692;50.710;7.180;2022-09-01T10:16:46;21.00;99.90
13251;DHT22;6692;50.710;7.180;2022-09-01T10:18:45;21.20;99.90
13251;DHT22;6692;50.710;7.180;2022-09-01T10:21:02;21.20;99.90
13251;DHT22;6692;50.710;7.180;2022-09-01T10:23:02;21.20;99.90
13251;DHT22;6692;50.710;7.180;2022-09-01T10:25:05;21.20;99.90
13251;DHT22;6692;50.710;7.180;2022-09-01T10:27:10;21.30;99.90
13251;DHT22;6692;50.710;7.180;2022-09-01T10:29:14;21.20;99.90
13251;DHT22;6692;50.710;7.180;2022-09-01T10:31:13;21.30;99.90
13251;DHT22;6692;50.710;7.180;2022-09-01T10:33:15;21.50;99.90
13251;DHT22;6692;50.710;7.180;2022-09-01T10:35:17;21.60;99.90
13251;DHT22;6692;50.710;7.180;2022-09-01T10:37:16;21.80;99.90
13251;DHT22;6692;50.710;7.180;2022-09-01T10:39:17;22.10;99.90
13251;DHT22;6692;50.710;7.180;2022-09-01T10:43:36;22.20;99.90
13251;DHT22;6692;50.710;7.180;2022-09-01T10:45:36;22.30;99.90
13251;DHT22;6692;50.710;7.180;2022-09-01T10:47:36;22.40;99.90
13251;DHT22;6692;50.710;7.180;2022-09-01T10:50:00;22.60;99.90
13251;DHT22;6692;50.710;7.180;2022-09-01T10:52:02;22.50;99.90
13251;DHT22;6692;50.710;7.180;2022-09-01T10:54:02;22.50;99.90
13251;DHT22;6692;50.710;7.180;2022-09-01T10:58:28;22.50;99.90
13251;DHT22;6692;50.710;7.180;2022-09-01T11:00:44;22.50;99.90
13251;DHT22;6692;50.710;7.180;2022-09-01T11:05:10;22.40;99.90
13251;DHT22;6692;50.710;7.180;2022-09-01T11:07:33;22.40;99.90
13251;DHT22;6692;50.710;7.180;2022-09-01T11:09:36;22.40;99.90
13251;DHT22;6692;50.710;7.180;2022-09-01T11:11:40;22.30;99.90
13251;DHT22;6692;50.710;7.180;2022-09-01T11:13:54;22.30;99.90
13251;DHT22;6692;50.710;7.180;2022-09-01T11:15:55;22.40;99.90
13251;DHT22;6692;50.710;7.180;2022-09-01T11:17:56;22.40;99.90
13251;DHT22;6692;50.710;7.180;2022-09-01T11:20:06;22.40;99.90
13251;DHT22;6692;50.710;7.180;2022-09-01T11:22:08;22.50;99.90
13251;DHT22;6692;50.710;7.180;2022-09-01T11:24:43;22.40;99.90
13251;DHT22;6692;50.710;7.180;2022-09-01T11:26:46;22.30;99.90
13251;DHT22;6692;50.710;7.180;2022-09-01T11:28:47;22.30;99.90
13251;DHT22;6692;50.710;7.180;2022-09-01T11:30:59;22.20;99.90
13251;DHT22;6692;50.710;7.180;2022-09-01T11:33:01;22.20;99.90
13251;DHT22;6692;50.710;7.180;2022-09-01T11:35:00;22.20;99.90
13251;DHT22;6692;50.710;7.180;2022-09-01T11:37:00;22.30;99.90
13251;DHT22;6692;50.710;7.180;2022-09-01T11:39:39;22.40;99.90
13251;DHT22;6692;50.710;7.180;2022-09-01T11:41:25;22.40;99.90
13251;DHT22;6692;50.710;7.180;2022-09-01T11:43:25;22.50;99.90
13251;DHT22;6692;50.710;7.180;2022-09-01T11:45:27;22.70;99.90
13251;DHT22;6692;50.710;7.180;2022-09-01T11:47:30;22.70;99.90
13251;DHT22;6692;50.710;7.180;2022-09-01T11:49:30;22.90;99.90
13251;DHT22;6692;50.710;7.180;2022-09-01T11:51:37;23.10;99.90
13251;DHT22;6692;50.710;7.180;2022-09-01T11:53:30;23.30;99.90
13251;DHT22;6692;50.710;7.180;2022-09-01T11:55:36;23.40;99.90
13251;DHT22;6692;50.710;7.180;2022-09-01T11:57:37;23.70;99.90
13251;DHT22;6692;50.710;7.180;2022-09-01T11:59:36;23.80;99.90
13251;DHT22;6692;50.710;7.180;2022-09-01T12:01:38;23.80;99.90
13251;DHT22;6692;50.710;7.180;2022-09-01T12:03:38;24.00;99.90
13251;DHT22;6692;50.710;7.180;2022-09-01T12:05:39;24.00;99.90
13251;DHT22;6692;50.710;7.180;2022-09-01T12:07:41;24.00;99.90
13251;DHT22;6692;50.710;7.180;2022-09-01T12:09:43;24.00;99.90
13251;DHT22;6692;50.710;7.180;2022-09-01T12:11:41;24.00;99.90
13251;DHT22;6692;50.710;7.180;2022-09-01T12:13:52;24.20;99.90
13251;DHT22;6692;50.710;7.180;2022-09-01T12:15:50;24.10;99.90
13251;DHT22;6692;50.710;7.180;2022-09-01T12:17:44;24.40;99.90
13251;DHT22;6692;50.710;7.180;2022-09-01T12:19:44;24.50;99.90
13251;DHT22;6692;50.710;7.180;2022-09-01T12:21:54;24.50;99.90
13251;DHT22;6692;50.710;7.180;2022-09-01T12:23:46;24.50;99.90
13251;DHT22;6692;50.710;7.180;2022-09-01T12:25:46;24.60;99.90
13251;DHT22;6692;50.710;7.180;2022-09-01T12:27:47;24.60;99.90
13251;DHT22;6692;50.710;7.180;2022-09-01T12:29:48;24.70;99.90
13251;DHT22;6692;50.710;7.180;2022-09-01T12:31:49;24.60;99.90
13251;DHT22;6692;50.710;7.180;2022-09-01T12:33:49;24.60;99.90
13251;DHT22;6692;50.710;7.180;2022-09-01T12:35:50;24.70;99.90
13251;DHT22;6692;50.710;7.180;2022-09-01T12:37:51;24.70;99.90
13251;DHT22;6692;50.710;7.180;2022-09-01T12:39:53;24.70;99.90
13251;DHT22;6692;50.710;7.180;2022-09-01T12:42:02;24.60;99.90
13251;DHT22;6692;50.710;7.180;2022-09-01T12:46:37;24.20;99.90
13251;DHT22;6692;50.710;7.180;2022-09-01T12:48:26;24.10;99.90
13251;DHT22;6692;50.710;7.180;2022-09-01T12:50:35;24.10;99.90
13251;DHT22;6692;50.710;7.180;2022-09-01T12:52:41;24.10;99.90
13251;DHT22;6692;50.710;7.180;2022-09-01T12:54:36;24.10;99.90
13251;DHT22;6692;50.710;7.180;2022-09-01T12:56:37;24.20;99.90
13251;DHT22;6692;50.710;7.180;2022-09-01T12:58:37;24.20;99.90
13251;DHT22;6692;50.710;7.180;2022-09-01T13:03:06;24.30;99.90
13251;DHT22;6692;50.710;7.180;2022-09-01T13:07:13;24.60;99.90
13251;DHT22;6692;50.710;7.180;2022-09-01T13:09:14;24.90;99.90
13251;DHT22;6692;50.710;7.180;2022-09-01T13:11:16;24.70;99.90
13251;DHT22;6692;50.710;7.180;2022-09-01T13:13:18;24.50;99.90
13251;DHT22;6692;50.710;7.180;2022-09-01T13:15:18;24.50;99.90
13251;DHT22;6692;50.710;7.180;2022-09-01T13:17:18;24.50;99.90
13251;DHT22;6692;50.710;7.180;2022-09-01T13:19:19;24.90;99.90
13251;DHT22;6692;50.710;7.180;2022-09-01T13:21:20;25.20;99.90
13251;DHT22;6692;50.710;7.180;2022-09-01T13:23:20;25.20;99.90
13251;DHT22;6692;50.710;7.180;2022-09-01T13:25:22;25.00;99.90
13251;DHT22;6692;50.710;7.180;2022-09-01T13:27:22;24.80;99.90